sensor_id;sensor_type;location;lat;lon;timestamp;temperature;humidity
14755;DHT22;7469;50.906;6.952;2023-06-26T00:00:54;24.50;43.50
14755;DHT22;7469;50.906;6.952;2023-06-26T00:03:22;24.40;43.70
14755;DHT22;7469;50.906;6.952;2023-06-26T00:05:50;24.30;43.50
14755;DHT22;7469;50.906;6.952;2023-06-26T00:08:20;24.30;43.60
14755;DHT22;7469;50.906;6.952;2023-06-26T00:10:48;24.20;43.50
14755;DHT22;7469;50.906;6.952;2023-06-26T00:13:18;24.20;43.80
14755;DHT22;7469;50.906;6.952;2023-06-26T00:15:46;24.10;44.00
14755;DHT22;7469;50.906;6.952;2023-06-26T00:18:14;24.10;44.40
14755;DHT22;7469;50.906;6.952;2023-06-26T00:20:42;24.20;44.90
14755;DHT22;7469;50.906;6.952;2023-06-26T00:23:11;24.10;45.20
14755;DHT22;7469;50.906;6.952;2023-06-26T00:25:41;24.10;45.40
14755;DHT22;7469;50.906;6.952;2023-06-26T00:28:09;24.00;45.60
14755;DHT22;7469;50.906;6.952;2023-06-26T00:30:37;24.00;46.00
14755;DHT22;7469;50.906;6.952;2023-06-26T00:33:06;24.00;46.40
14755;DHT22;7469;50.906;6.952;2023-06-26T00:35:34;24.00;46.90
14755;DHT22;7469;50.906;6.952;2023-06-26T00:38:02;24.00;47.30
14755;DHT22;7469;50.906;6.952;2023-06-26T00:40:30;23.90;47.90
14755;DHT22;7469;50.906;6.952;2023-06-26T00:43:00;23.80;48.60
14755;DHT22;7469;50.906;6.952;2023-06-26T00:45:28;23.70;49.30
14755;DHT22;7469;50.906;6.952;2023-06-26T00:48:10;23.70;49.70
14755;DHT22;7469;50.906;6.952;2023-06-26T00:50:39;23.70;50.50
14755;DHT22;7469;50.906;6.952;2023-06-26T00:53:09;23.60;51.20
14755;DHT22;7469;50.906;6.952;2023-06-26T00:55:37;23.50;52.00
14755;DHT22;7469;50.906;6.952;2023-06-26T00:58:06;23.50;52.80
14755;DHT22;7469;50.906;6.952;2023-06-26T01:00:35;23.40;53.70
14755;DHT22;7469;50.906;6.952;2023-06-26T01:03:03;23.30;54.60
14755;DHT22;7469;50.906;6.952;2023-06-26T01:05:31;23.30;55.40
14755;DHT22;7469;50.906;6.952;2023-06-26T01:07:59;23.20;56.30
14755;DHT22;7469;50.906;6.952;2023-06-26T01:10:28;23.20;57.30
14755;DHT22;7469;50.906;6.952;2023-06-26T01:12:57;23.10;58.40
14755;DHT22;7469;50.906;6.952;2023-06-26T01:15:26;23.10;59.20
14755;DHT22;7469;50.906;6.952;2023-06-26T01:17:55;23.10;60.10
14755;DHT22;7469;50.906;6.952;2023-06-26T01:20:31;23.20;60.60
14755;DHT22;7469;50.906;6.952;2023-06-26T01:23:07;23.20;60.90
14755;DHT22;7469;50.906;6.952;2023-06-26T01:25:53;23.20;61.70
14755;DHT22;7469;50.906;6.952;2023-06-26T01:28:26;23.20;62.70
14755;DHT22;7469;50.906;6.952;2023-06-26T01:30:55;23.10;64.10
14755;DHT22;7469;50.906;6.952;2023-06-26T01:33:23;23.10;65.20
14755;DHT22;7469;50.906;6.952;2023-06-26T01:35:51;23.00;66.30
14755;DHT22;7469;50.906;6.952;2023-06-26T01:38:20;23.00;67.60
14755;DHT22;7469;50.906;6.952;2023-06-26T01:40:50;22.90;68.80
14755;DHT22;7469;50.906;6.952;2023-06-26T01:43:26;22.90;70.50
14755;DHT22;7469;50.906;6.952;2023-06-26T01:45:59;22.80;72.70
14755;DHT22;7469;50.906;6.952;2023-06-26T01:48:32;22.80;73.70
14755;DHT22;7469;50.906;6.952;2023-06-26T01:51:02;22.70;75.40
14755;DHT22;7469;50.906;6.952;2023-06-26T01:53:35;22.70;77.40
14755;DHT22;7469;50.906;6.952;2023-06-26T01:56:07;22.70;78.70
14755;DHT22;7469;50.906;6.952;2023-06-26T01:58:40;22.60;79.90
14755;DHT22;7469;50.906;6.952;2023-06-26T02:01:08;22.60;81.20
14755;DHT22;7469;50.906;6.952;2023-06-26T02:03:36;22.60;82.40
14755;DHT22;7469;50.906;6.952;2023-06-26T02:06:05;22.60;83.60
14755;DHT22;7469;50.906;6.952;2023-06-26T02:08:33;22.50;84.70
14755;DHT22;7469;50.906;6.952;2023-06-26T02:11:00;22.50;86.50
14755;DHT22;7469;50.906;6.952;2023-06-26T02:13:32;22.50;86.50
14755;DHT22;7469;50.906;6.952;2023-06-26T02:16:01;22.50;87.20
14755;DHT22;7469;50.906;6.952;2023-06-26T02:18:29;22.50;88.00
14755;DHT22;7469;50.906;6.952;2023-06-26T02:20:57;22.50;88.70
14755;DHT22;7469;50.906;6.952;2023-06-26T02:23:25;22.60;89.00
14755;DHT22;7469;50.906;6.952;2023-06-26T02:25:53;22.60;89.30
14755;DHT22;7469;50.906;6.952;2023-06-26T02:28:20;22.60;89.70
14755;DHT22;7469;50.906;6.952;2023-06-26T02:30:48;22.60;90.20
14755;DHT22;7469;50.906;6.952;2023-06-26T02:33:18;22.60;90.40
14755;DHT22;7469;50.906;6.952;2023-06-26T02:35:46;22.60;90.90
14755;DHT22;7469;50.906;6.952;2023-06-26T02:38:14;22.60;91.30
14755;DHT22;7469;50.906;6.952;2023-06-26T02:40:42;22.50;91.70
14755;DHT22;7469;50.906;6.952;2023-06-26T02:43:10;22.40;92.20
14755;DHT22;7469;50.906;6.952;2023-06-26T02:45:38;22.30;92.90
14755;DHT22;7469;50.906;6.952;2023-06-26T02:48:06;22.30;93.40
14755;DHT22;7469;50.906;6.952;2023-06-26T02:50:35;22.30;93.70
14755;DHT22;7469;50.906;6.952;2023-06-26T02:53:04;22.40;94.10
14755;DHT22;7469;50.906;6.952;2023-06-26T02:55:33;22.40;94.40
14755;DHT22;7469;50.906;6.952;2023-06-26T02:58:01;22.40;94.80
14755;DHT22;7469;50.906;6.952;2023-06-26T03:00:29;22.40;95.10
14755;DHT22;7469;50.906;6.952;2023-06-26T03:02:57;22.30;95.50
14755;DHT22;7469;50.906;6.952;2023-06-26T03:05:26;22.30;95.80
14755;DHT22;7469;50.906;6.952;2023-06-26T03:07:55;22.20;96.10
14755;DHT22;7469;50.906;6.952;2023-06-26T03:10:24;22.20;96.30
14755;DHT22;7469;50.906;6.952;2023-06-26T03:12:51;22.20;96.80
14755;DHT22;7469;50.906;6.952;2023-06-26T03:15:19;22.20;96.50
14755;DHT22;7469;50.906;6.952;2023-06-26T03:17:47;22.10;96.50
14755;DHT22;7469;50.906;6.952;2023-06-26T03:20:16;22.00;96.40
14755;DHT22;7469;50.906;6.952;2023-06-26T03:22:44;22.00;96.50
14755;DHT22;7469;50.906;6.952;2023-06-26T03:25:13;22.10;96.00
14755;DHT22;7469;50.906;6.952;2023-06-26T03:27:41;22.10;95.70
14755;DHT22;7469;50.906;6.952;2023-06-26T03:30:10;22.20;95.60
14755;DHT22;7469;50.906;6.952;2023-06-26T03:32:38;22.20;95.70
14755;DHT22;7469;50.906;6.952;2023-06-26T03:35:07;22.20;95.80
14755;DHT22;7469;50.906;6.952;2023-06-26T03:37:36;22.30;95.80
14755;DHT22;7469;50.906;6.952;2023-06-26T03:40:04;22.30;95.80
14755;DHT22;7469;50.906;6.952;2023-06-26T03:42:34;22.40;95.70
14755;DHT22;7469;50.906;6.952;2023-06-26T03:45:02;22.50;95.50
14755;DHT22;7469;50.906;6.952;2023-06-26T03:47:30;22.50;95.30
14755;DHT22;7469;50.906;6.952;2023-06-26T03:49:58;22.60;95.30
14755;DHT22;7469;50.906;6.952;2023-06-26T03:52:26;22.60;95.10
14755;DHT22;7469;50.906;6.952;2023-06-26T03:54:54;22.60;95.10
14755;DHT22;7469;50.906;6.952;2023-06-26T03:57:22;22.70;95.10
14755;DHT22;7469;50.906;6.952;2023-06-26T03:59:51;22.70;95.20
14755;DHT22;7469;50.906;6.952;2023-06-26T04:02:20;22.70;95.20
14755;DHT22;7469;50.906;6.952;2023-06-26T04:04:48;22.80;95.20
14755;DHT22;7469;50.906;6.952;2023-06-26T04:07:15;22.80;95.20
14755;DHT22;7469;50.906;6.952;2023-06-26T04:09:43;22.90;95.10
14755;DHT22;7469;50.906;6.952;2023-06-26T04:12:12;22.90;95.10
14755;DHT22;7469;50.906;6.952;2023-06-26T04:14:39;22.90;95.20
14755;DHT22;7469;50.906;6.952;2023-06-26T04:17:11;23.00;95.30
14755;DHT22;7469;50.906;6.952;2023-06-26T04:19:39;23.10;95.30
14755;DHT22;7469;50.906;6.952;2023-06-26T04:22:07;23.10;95.40
14755;DHT22;7469;50.906;6.952;2023-06-26T04:24:35;23.10;95.40
14755;DHT22;7469;50.906;6.952;2023-06-26T04:27:03;23.10;95.50
14755;DHT22;7469;50.906;6.952;2023-06-26T04:29:32;23.10;95.70
14755;DHT22;7469;50.906;6.952;2023-06-26T04:32:00;23.20;95.80
14755;DHT22;7469;50.906;6.952;2023-06-26T04:34:29;23.20;96.00
14755;DHT22;7469;50.906;6.952;2023-06-26T04:36:59;23.20;96.10
14755;DHT22;7469;50.906;6.952;2023-06-26T04:39:27;23.20;96.20
14755;DHT22;7469;50.906;6.952;2023-06-26T04:41:54;23.20;96.30
14755;DHT22;7469;50.906;6.952;2023-06-26T04:44:22;23.20;96.40
14755;DHT22;7469;50.906;6.952;2023-06-26T04:46:50;23.20;96.70
14755;DHT22;7469;50.906;6.952;2023-06-26T04:49:19;23.20;96.80
14755;DHT22;7469;50.906;6.952;2023-06-26T04:51:48;23.30;96.80
14755;DHT22;7469;50.906;6.952;2023-06-26T04:54:17;23.30;96.70
14755;DHT22;7469;50.906;6.952;2023-06-26T04:56:45;23.30;96.50
14755;DHT22;7469;50.906;6.952;2023-06-26T04:59:14;23.20;96.40
14755;DHT22;7469;50.906;6.952;2023-06-26T05:01:42;23.20;96.30
14755;DHT22;7469;50.906;6.952;2023-06-26T05:04:15;23.10;96.20
14755;DHT22;7469;50.906;6.952;2023-06-26T05:06:43;23.10;96.20
14755;DHT22;7469;50.906;6.952;2023-06-26T05:09:12;23.10;96.20
14755;DHT22;7469;50.906;6.952;2023-06-26T05:11:40;23.20;96.00
14755;DHT22;7469;50.906;6.952;2023-06-26T05:14:08;23.20;95.80
14755;DHT22;7469;50.906;6.952;2023-06-26T05:16:38;23.30;95.50
14755;DHT22;7469;50.906;6.952;2023-06-26T05:19:06;23.30;95.30
14755;DHT22;7469;50.906;6.952;2023-06-26T05:21:34;23.40;95.10
14755;DHT22;7469;50.906;6.952;2023-06-26T05:24:03;23.40;94.90
14755;DHT22;7469;50.906;6.952;2023-06-26T05:26:34;23.40;94.80
14755;DHT22;7469;50.906;6.952;2023-06-26T05:29:02;23.40;94.60
14755;DHT22;7469;50.906;6.952;2023-06-26T05:31:31;23.30;94.50
14755;DHT22;7469;50.906;6.952;2023-06-26T05:34:03;23.30;94.40
14755;DHT22;7469;50.906;6.952;2023-06-26T05:36:31;23.30;94.40
14755;DHT22;7469;50.906;6.952;2023-06-26T05:39:01;23.30;94.40
14755;DHT22;7469;50.906;6.952;2023-06-26T05:41:30;23.30;94.60
14755;DHT22;7469;50.906;6.952;2023-06-26T05:44:00;23.40;94.40
14755;DHT22;7469;50.906;6.952;2023-06-26T05:46:28;23.50;94.30
14755;DHT22;7469;50.906;6.952;2023-06-26T05:48:56;23.50;94.30
14755;DHT22;7469;50.906;6.952;2023-06-26T05:51:25;23.50;94.20
14755;DHT22;7469;50.906;6.952;2023-06-26T05:53:54;23.50;94.30
14755;DHT22;7469;50.906;6.952;2023-06-26T05:56:22;23.50;94.30
14755;DHT22;7469;50.906;6.952;2023-06-26T05:58:51;23.50;94.40
14755;DHT22;7469;50.906;6.952;2023-06-26T06:01:20;23.40;94.60
14755;DHT22;7469;50.906;6.952;2023-06-26T06:03:48;23.30;94.70
14755;DHT22;7469;50.906;6.952;2023-06-26T06:06:19;23.30;94.80
14755;DHT22;7469;50.906;6.952;2023-06-26T06:08:46;23.40;94.80
14755;DHT22;7469;50.906;6.952;2023-06-26T06:11:15;23.50;94.70
14755;DHT22;7469;50.906;6.952;2023-06-26T06:13:43;23.50;94.70
14755;DHT22;7469;50.906;6.952;2023-06-26T06:16:11;23.50;94.80
14755;DHT22;7469;50.906;6.952;2023-06-26T06:18:40;23.50;95.30
14755;DHT22;7469;50.906;6.952;2023-06-26T06:21:08;23.50;95.20
14755;DHT22;7469;50.906;6.952;2023-06-26T06:23:36;23.50;95.20
14755;DHT22;7469;50.906;6.952;2023-06-26T06:26:05;23.60;95.10
14755;DHT22;7469;50.906;6.952;2023-06-26T06:28:33;23.60;95.30
14755;DHT22;7469;50.906;6.952;2023-06-26T06:31:01;23.60;95.50
14755;DHT22;7469;50.906;6.952;2023-06-26T06:33:29;23.50;95.60
14755;DHT22;7469;50.906;6.952;2023-06-26T06:35:58;23.40;95.80
14755;DHT22;7469;50.906;6.952;2023-06-26T06:38:26;23.40;95.90
14755;DHT22;7469;50.906;6.952;2023-06-26T06:40:54;23.30;96.00
14755;DHT22;7469;50.906;6.952;2023-06-26T06:43:22;23.30;96.20
14755;DHT22;7469;50.906;6.952;2023-06-26T06:45:50;23.40;96.20
14755;DHT22;7469;50.906;6.952;2023-06-26T06:48:18;23.30;96.40
14755;DHT22;7469;50.906;6.952;2023-06-26T06:50:46;23.30;96.60
14755;DHT22;7469;50.906;6.952;2023-06-26T06:53:17;23.30;96.70
14755;DHT22;7469;50.906;6.952;2023-06-26T06:55:47;23.30;96.80
14755;DHT22;7469;50.906;6.952;2023-06-26T06:58:15;23.30;96.90
14755;DHT22;7469;50.906;6.952;2023-06-26T07:00:46;23.30;97.00
14755;DHT22;7469;50.906;6.952;2023-06-26T07:03:14;23.40;97.10
14755;DHT22;7469;50.906;6.952;2023-06-26T07:05:42;23.40;97.10
14755;DHT22;7469;50.906;6.952;2023-06-26T07:08:10;23.40;97.20
14755;DHT22;7469;50.906;6.952;2023-06-26T07:10:39;23.50;97.60
14755;DHT22;7469;50.906;6.952;2023-06-26T07:13:07;23.40;97.30
14755;DHT22;7469;50.906;6.952;2023-06-26T07:15:36;23.50;97.40
14755;DHT22;7469;50.906;6.952;2023-06-26T07:18:04;23.40;97.50
14755;DHT22;7469;50.906;6.952;2023-06-26T07:20:32;23.50;97.60
14755;DHT22;7469;50.906;6.952;2023-06-26T07:23:01;23.40;97.60
14755;DHT22;7469;50.906;6.952;2023-06-26T07:25:29;23.50;97.70
14755;DHT22;7469;50.906;6.952;2023-06-26T07:27:58;23.50;97.90
14755;DHT22;7469;50.906;6.952;2023-06-26T07:30:27;23.50;98.30
14755;DHT22;7469;50.906;6.952;2023-06-26T07:32:55;23.50;97.90
14755;DHT22;7469;50.906;6.952;2023-06-26T07:35:22;23.70;97.90
14755;DHT22;7469;50.906;6.952;2023-06-26T07:37:51;23.80;97.70
14755;DHT22;7469;50.906;6.952;2023-06-26T07:40:19;23.90;97.60
14755;DHT22;7469;50.906;6.952;2023-06-26T07:42:47;24.00;97.40
14755;DHT22;7469;50.906;6.952;2023-06-26T07:45:17;24.00;97.30
14755;DHT22;7469;50.906;6.952;2023-06-26T07:47:45;24.00;97.20
14755;DHT22;7469;50.906;6.952;2023-06-26T07:50:13;24.10;97.20
14755;DHT22;7469;50.906;6.952;2023-06-26T07:52:46;24.10;97.10
14755;DHT22;7469;50.906;6.952;2023-06-26T07:55:14;24.00;97.20
14755;DHT22;7469;50.906;6.952;2023-06-26T07:57:42;24.10;97.40
14755;DHT22;7469;50.906;6.952;2023-06-26T08:00:12;24.10;97.20
14755;DHT22;7469;50.906;6.952;2023-06-26T08:02:42;24.20;97.10
14755;DHT22;7469;50.906;6.952;2023-06-26T08:05:10;24.20;97.00
14755;DHT22;7469;50.906;6.952;2023-06-26T08:07:38;24.30;97.00
14755;DHT22;7469;50.906;6.952;2023-06-26T08:10:06;24.40;96.90
14755;DHT22;7469;50.906;6.952;2023-06-26T08:12:34;24.50;96.70
14755;DHT22;7469;50.906;6.952;2023-06-26T08:15:03;24.50;96.50
14755;DHT22;7469;50.906;6.952;2023-06-26T08:17:31;24.60;96.30
14755;DHT22;7469;50.906;6.952;2023-06-26T08:20:01;24.70;96.10
14755;DHT22;7469;50.906;6.952;2023-06-26T08:22:29;24.70;96.40
14755;DHT22;7469;50.906;6.952;2023-06-26T08:24:57;24.80;95.80
14755;DHT22;7469;50.906;6.952;2023-06-26T08:27:25;24.80;95.70
14755;DHT22;7469;50.906;6.952;2023-06-26T08:29:53;24.80;95.60
14755;DHT22;7469;50.906;6.952;2023-06-26T08:32:21;24.80;95.60
14755;DHT22;7469;50.906;6.952;2023-06-26T08:34:49;24.80;95.40
14755;DHT22;7469;50.906;6.952;2023-06-26T08:37:18;24.90;95.40
14755;DHT22;7469;50.906;6.952;2023-06-26T08:39:47;24.90;95.10
14755;DHT22;7469;50.906;6.952;2023-06-26T08:42:15;25.00;94.70
14755;DHT22;7469;50.906;6.952;2023-06-26T08:44:43;25.10;94.60
14755;DHT22;7469;50.906;6.952;2023-06-26T08:47:27;25.10;94.50
14755;DHT22;7469;50.906;6.952;2023-06-26T08:50:01;25.30;94.40
14755;DHT22;7469;50.906;6.952;2023-06-26T08:52:35;25.30;94.10
14755;DHT22;7469;50.906;6.952;2023-06-26T08:55:09;25.40;93.90
14755;DHT22;7469;50.906;6.952;2023-06-26T08:57:37;25.60;93.60
14755;DHT22;7469;50.906;6.952;2023-06-26T09:00:08;25.50;93.30
14755;DHT22;7469;50.906;6.952;2023-06-26T09:02:36;25.50;93.20
14755;DHT22;7469;50.906;6.952;2023-06-26T09:05:05;25.50;93.10
14755;DHT22;7469;50.906;6.952;2023-06-26T09:07:35;25.50;93.10
14755;DHT22;7469;50.906;6.952;2023-06-26T09:10:03;25.50;92.80
14755;DHT22;7469;50.906;6.952;2023-06-26T09:12:31;25.60;92.20
14755;DHT22;7469;50.906;6.952;2023-06-26T09:15:01;25.80;91.80
14755;DHT22;7469;50.906;6.952;2023-06-26T09:17:30;26.10;91.40
14755;DHT22;7469;50.906;6.952;2023-06-26T09:19:59;26.50;90.70
14755;DHT22;7469;50.906;6.952;2023-06-26T09:22:27;27.00;89.90
14755;DHT22;7469;50.906;6.952;2023-06-26T09:24:56;28.00;85.80
14755;DHT22;7469;50.906;6.952;2023-06-26T09:27:24;28.20;81.30
14755;DHT22;7469;50.906;6.952;2023-06-26T09:29:53;27.90;80.10
14755;DHT22;7469;50.906;6.952;2023-06-26T09:32:24;27.70;80.00
14755;DHT22;7469;50.906;6.952;2023-06-26T09:34:52;28.10;78.20
14755;DHT22;7469;50.906;6.952;2023-06-26T09:37:22;28.70;74.80
14755;DHT22;7469;50.906;6.952;2023-06-26T09:39:51;29.30;70.30
14755;DHT22;7469;50.906;6.952;2023-06-26T09:42:20;29.70;65.40
14755;DHT22;7469;50.906;6.952;2023-06-26T09:44:48;30.10;60.90
14755;DHT22;7469;50.906;6.952;2023-06-26T09:47:19;30.40;56.80
14755;DHT22;7469;50.906;6.952;2023-06-26T09:49:49;30.20;55.90
14755;DHT22;7469;50.906;6.952;2023-06-26T09:52:19;29.70;56.20
14755;DHT22;7469;50.906;6.952;2023-06-26T09:54:47;29.50;56.30
14755;DHT22;7469;50.906;6.952;2023-06-26T09:57:16;29.20;56.30
14755;DHT22;7469;50.906;6.952;2023-06-26T09:59:46;29.20;55.70
14755;DHT22;7469;50.906;6.952;2023-06-26T10:02:13;29.50;54.30
14755;DHT22;7469;50.906;6.952;2023-06-26T10:04:42;29.60;52.50
14755;DHT22;7469;50.906;6.952;2023-06-26T10:07:11;29.40;52.00
14755;DHT22;7469;50.906;6.952;2023-06-26T10:09:41;29.40;51.80
14755;DHT22;7469;50.906;6.952;2023-06-26T10:12:14;29.20;52.00
14755;DHT22;7469;50.906;6.952;2023-06-26T10:14:47;28.80;52.60
14755;DHT22;7469;50.906;6.952;2023-06-26T10:17:17;28.50;53.20
14755;DHT22;7469;50.906;6.952;2023-06-26T10:19:48;28.30;53.40
14755;DHT22;7469;50.906;6.952;2023-06-26T10:22:20;28.30;52.80
14755;DHT22;7469;50.906;6.952;2023-06-26T10:24:49;28.80;51.90
14755;DHT22;7469;50.906;6.952;2023-06-26T10:27:19;28.90;50.60
14755;DHT22;7469;50.906;6.952;2023-06-26T10:29:53;28.70;50.10
14755;DHT22;7469;50.906;6.952;2023-06-26T10:32:24;28.40;50.40
14755;DHT22;7469;50.906;6.952;2023-06-26T10:34:53;28.10;51.50
14755;DHT22;7469;50.906;6.952;2023-06-26T10:37:21;27.80;51.30
14755;DHT22;7469;50.906;6.952;2023-06-26T10:39:51;28.10;50.70
14755;DHT22;7469;50.906;6.952;2023-06-26T10:42:35;28.50;49.60
14755;DHT22;7469;50.906;6.952;2023-06-26T10:45:16;28.70;48.10
14755;DHT22;7469;50.906;6.952;2023-06-26T10:47:47;28.80;47.60
14755;DHT22;7469;50.906;6.952;2023-06-26T10:50:19;29.10;46.70
14755;DHT22;7469;50.906;6.952;2023-06-26T10:53:09;29.70;46.10
14755;DHT22;7469;50.906;6.952;2023-06-26T10:55:41;30.40;44.40
14755;DHT22;7469;50.906;6.952;2023-06-26T10:58:41;30.80;42.10
14755;DHT22;7469;50.906;6.952;2023-06-26T11:01:21;31.00;39.80
14755;DHT22;7469;50.906;6.952;2023-06-26T11:04:03;31.30;38.40
14755;DHT22;7469;50.906;6.952;2023-06-26T11:06:33;31.50;35.60
14755;DHT22;7469;50.906;6.952;2023-06-26T11:09:10;31.80;33.70
14755;DHT22;7469;50.906;6.952;2023-06-26T11:11:58;32.00;32.10
14755;DHT22;7469;50.906;6.952;2023-06-26T11:14:31;32.20;31.20
14755;DHT22;7469;50.906;6.952;2023-06-26T11:17:04;32.10;30.30
14755;DHT22;7469;50.906;6.952;2023-06-26T11:19:32;31.50;29.10
14755;DHT22;7469;50.906;6.952;2023-06-26T11:22:04;31.10;28.80
14755;DHT22;7469;50.906;6.952;2023-06-26T11:24:33;30.70;29.40
14755;DHT22;7469;50.906;6.952;2023-06-26T11:27:02;30.90;29.70
14755;DHT22;7469;50.906;6.952;2023-06-26T11:29:32;31.00;29.90
14755;DHT22;7469;50.906;6.952;2023-06-26T11:32:04;30.90;29.90
14755;DHT22;7469;50.906;6.952;2023-06-26T11:34:33;30.60;29.70
14755;DHT22;7469;50.906;6.952;2023-06-26T11:37:02;30.20;30.00
14755;DHT22;7469;50.906;6.952;2023-06-26T11:39:30;29.70;30.70
14755;DHT22;7469;50.906;6.952;2023-06-26T11:41:59;29.30;31.90
14755;DHT22;7469;50.906;6.952;2023-06-26T11:44:31;28.90;32.10
14755;DHT22;7469;50.906;6.952;2023-06-26T11:46:59;28.60;31.70
14755;DHT22;7469;50.906;6.952;2023-06-26T11:49:29;28.50;31.00
14755;DHT22;7469;50.906;6.952;2023-06-26T11:51:57;28.40;31.00
14755;DHT22;7469;50.906;6.952;2023-06-26T11:54:26;28.20;31.30
14755;DHT22;7469;50.906;6.952;2023-06-26T11:56:56;28.10;32.00
14755;DHT22;7469;50.906;6.952;2023-06-26T11:59:32;27.90;32.10
14755;DHT22;7469;50.906;6.952;2023-06-26T12:02:06;27.70;32.30
14755;DHT22;7469;50.906;6.952;2023-06-26T12:04:37;27.60;32.70
14755;DHT22;7469;50.906;6.952;2023-06-26T12:07:06;27.50;33.10
14755;DHT22;7469;50.906;6.952;2023-06-26T12:09:38;27.50;33.40
14755;DHT22;7469;50.906;6.952;2023-06-26T12:12:08;27.40;33.90
14755;DHT22;7469;50.906;6.952;2023-06-26T12:14:36;27.40;34.10
14755;DHT22;7469;50.906;6.952;2023-06-26T12:17:08;27.40;32.60
14755;DHT22;7469;50.906;6.952;2023-06-26T12:19:39;27.30;31.10
14755;DHT22;7469;50.906;6.952;2023-06-26T12:22:08;27.30;30.50
14755;DHT22;7469;50.906;6.952;2023-06-26T12:24:37;27.20;31.20
14755;DHT22;7469;50.906;6.952;2023-06-26T12:27:08;27.10;30.60
14755;DHT22;7469;50.906;6.952;2023-06-26T12:29:38;27.20;30.70
14755;DHT22;7469;50.906;6.952;2023-06-26T12:32:08;27.20;30.20
14755;DHT22;7469;50.906;6.952;2023-06-26T12:34:39;27.20;30.40
14755;DHT22;7469;50.906;6.952;2023-06-26T12:37:08;27.20;30.40
14755;DHT22;7469;50.906;6.952;2023-06-26T12:39:48;27.30;30.60
14755;DHT22;7469;50.906;6.952;2023-06-26T12:42:17;27.40;31.20
14755;DHT22;7469;50.906;6.952;2023-06-26T12:44:45;27.50;30.80
14755;DHT22;7469;50.906;6.952;2023-06-26T12:47:14;27.40;29.70
14755;DHT22;7469;50.906;6.952;2023-06-26T12:49:45;27.30;29.50
14755;DHT22;7469;50.906;6.952;2023-06-26T12:52:14;27.30;30.10
14755;DHT22;7469;50.906;6.952;2023-06-26T12:54:43;27.30;30.80
14755;DHT22;7469;50.906;6.952;2023-06-26T12:57:11;27.30;30.90
14755;DHT22;7469;50.906;6.952;2023-06-26T12:59:41;27.20;31.30
14755;DHT22;7469;50.906;6.952;2023-06-26T13:02:09;27.10;31.20
14755;DHT22;7469;50.906;6.952;2023-06-26T13:04:39;27.10;30.80
14755;DHT22;7469;50.906;6.952;2023-06-26T13:07:08;27.10;30.40
14755;DHT22;7469;50.906;6.952;2023-06-26T13:09:37;27.30;29.90
14755;DHT22;7469;50.906;6.952;2023-06-26T13:12:06;27.40;29.50
14755;DHT22;7469;50.906;6.952;2023-06-26T13:14:35;27.40;29.10
14755;DHT22;7469;50.906;6.952;2023-06-26T13:17:05;27.40;28.90
14755;DHT22;7469;50.906;6.952;2023-06-26T13:19:36;27.40;28.60
14755;DHT22;7469;50.906;6.952;2023-06-26T13:22:04;27.50;27.70
14755;DHT22;7469;50.906;6.952;2023-06-26T13:24:33;27.70;27.10
14755;DHT22;7469;50.906;6.952;2023-06-26T13:27:01;27.60;26.70
14755;DHT22;7469;50.906;6.952;2023-06-26T13:29:31;27.40;26.90
14755;DHT22;7469;50.906;6.952;2023-06-26T13:31:59;27.30;27.60
14755;DHT22;7469;50.906;6.952;2023-06-26T13:34:28;27.30;28.10
14755;DHT22;7469;50.906;6.952;2023-06-26T13:36:57;27.50;28.20
14755;DHT22;7469;50.906;6.952;2023-06-26T13:39:26;27.60;28.10
14755;DHT22;7469;50.906;6.952;2023-06-26T13:41:56;27.70;27.50
14755;DHT22;7469;50.906;6.952;2023-06-26T13:44:24;27.50;27.90
14755;DHT22;7469;50.906;6.952;2023-06-26T13:47:04;27.40;27.70
14755;DHT22;7469;50.906;6.952;2023-06-26T13:49:35;27.50;27.60
14755;DHT22;7469;50.906;6.952;2023-06-26T13:52:03;27.50;27.60
14755;DHT22;7469;50.906;6.952;2023-06-26T13:54:31;27.50;27.20
14755;DHT22;7469;50.906;6.952;2023-06-26T13:57:01;27.50;27.30
14755;DHT22;7469;50.906;6.952;2023-06-26T13:59:29;27.70;27.30
14755;DHT22;7469;50.906;6.952;2023-06-26T14:01:57;27.70;26.60
14755;DHT22;7469;50.906;6.952;2023-06-26T14:04:25;27.60;26.50
14755;DHT22;7469;50.906;6.952;2023-06-26T14:06:53;27.60;26.60
14755;DHT22;7469;50.906;6.952;2023-06-26T14:09:21;27.70;26.50
14755;DHT22;7469;50.906;6.952;2023-06-26T14:11:49;27.50;25.90
14755;DHT22;7469;50.906;6.952;2023-06-26T14:14:19;27.50;25.50
14755;DHT22;7469;50.906;6.952;2023-06-26T14:16:47;27.60;24.90
14755;DHT22;7469;50.906;6.952;2023-06-26T14:19:16;27.80;24.40
14755;DHT22;7469;50.906;6.952;2023-06-26T14:21:45;27.90;23.80
14755;DHT22;7469;50.906;6.952;2023-06-26T14:24:13;28.10;23.70
14755;DHT22;7469;50.906;6.952;2023-06-26T14:26:41;28.10;22.90
14755;DHT22;7469;50.906;6.952;2023-06-26T14:29:09;28.10;22.60
14755;DHT22;7469;50.906;6.952;2023-06-26T14:31:38;28.20;22.40
14755;DHT22;7469;50.906;6.952;2023-06-26T14:34:06;28.30;22.50
14755;DHT22;7469;50.906;6.952;2023-06-26T14:36:35;28.10;22.90
14755;DHT22;7469;50.906;6.952;2023-06-26T14:39:04;28.00;22.90
14755;DHT22;7469;50.906;6.952;2023-06-26T14:41:32;27.90;23.20
14755;DHT22;7469;50.906;6.952;2023-06-26T14:44:01;27.90;23.70
14755;DHT22;7469;50.906;6.952;2023-06-26T14:46:29;27.90;23.80
14755;DHT22;7469;50.906;6.952;2023-06-26T14:48:59;27.90;24.00
14755;DHT22;7469;50.906;6.952;2023-06-26T14:51:27;27.80;24.00
14755;DHT22;7469;50.906;6.952;2023-06-26T14:53:55;27.80;24.20
14755;DHT22;7469;50.906;6.952;2023-06-26T14:56:23;27.80;24.50
14755;DHT22;7469;50.906;6.952;2023-06-26T14:58:52;27.90;24.60
14755;DHT22;7469;50.906;6.952;2023-06-26T15:01:20;27.80;24.70
14755;DHT22;7469;50.906;6.952;2023-06-26T15:03:48;27.80;24.30
14755;DHT22;7469;50.906;6.952;2023-06-26T15:06:18;27.80;24.30
14755;DHT22;7469;50.906;6.952;2023-06-26T15:08:46;27.80;24.20
14755;DHT22;7469;50.906;6.952;2023-06-26T15:11:14;27.80;24.90
14755;DHT22;7469;50.906;6.952;2023-06-26T15:13:42;27.80;24.40
14755;DHT22;7469;50.906;6.952;2023-06-26T15:16:10;27.60;24.30
14755;DHT22;7469;50.906;6.952;2023-06-26T15:18:38;27.30;24.10
14755;DHT22;7469;50.906;6.952;2023-06-26T15:21:06;27.10;24.10
14755;DHT22;7469;50.906;6.952;2023-06-26T15:23:35;27.00;24.30
14755;DHT22;7469;50.906;6.952;2023-06-26T15:26:05;26.90;24.60
14755;DHT22;7469;50.906;6.952;2023-06-26T15:28:33;26.90;24.30
14755;DHT22;7469;50.906;6.952;2023-06-26T15:31:01;26.80;23.90
14755;DHT22;7469;50.906;6.952;2023-06-26T15:33:29;26.80;23.50
14755;DHT22;7469;50.906;6.952;2023-06-26T15:35:57;26.80;23.40
14755;DHT22;7469;50.906;6.952;2023-06-26T15:38:25;26.90;23.40
14755;DHT22;7469;50.906;6.952;2023-06-26T15:40:54;26.90;23.20
14755;DHT22;7469;50.906;6.952;2023-06-26T15:43:22;26.90;23.00
14755;DHT22;7469;50.906;6.952;2023-06-26T15:45:50;26.80;23.00
14755;DHT22;7469;50.906;6.952;2023-06-26T15:48:18;26.80;23.10
14755;DHT22;7469;50.906;6.952;2023-06-26T15:50:46;26.80;23.00
14755;DHT22;7469;50.906;6.952;2023-06-26T15:53:16;26.60;23.00
14755;DHT22;7469;50.906;6.952;2023-06-26T15:55:45;26.50;23.20
14755;DHT22;7469;50.906;6.952;2023-06-26T15:58:15;26.50;23.30